Meteo Giornale » Osservazioni meteo Stati Uniti (USA) » Great Falls
ore: 10:53 - Osservazioni Meteo Great Falls
Lat. 47° 28' N Lon. 111° 22' W Alt. 1120 metri s.l.m.
22 °C
Sereno
Temp. 24 Ore
9 °C
25 °C
Sud
7.4 Km/h
Dew point 4 °C
Umidità 30 %
Visibilità 10 Km
Il sole sorge alle ore 06:44
Il sole tramonta alle ore 20:06
| Data e Ora | Cielo e Fenomeni | T °C | DP °C | Um. % | Pres. hPa | Vis. km | Vento km/h | |
|---|---|---|---|---|---|---|---|---|
| Oggi h: 10:53 | Sereno | 22 | 4 | 30 | 1012 | 10 | S 7.4 | |
| Oggi h: 09:53 | Sereno | 19 | 5 | 39 | 1013 | 10 | S/SO 7.4 | |
| Oggi h: 08:53 | Sereno | 15 | 6 | 54 | 1013 | 10 | N 5.5 | |
| Oggi h: 07:53 | Sereno | 11 | 6 | 71 | 1013 | 14 | N 0 | |
| Oggi h: 06:53 | Sereno | 9 | 4 | 70 | 1013 | 10 | O/SO 9.3 | |
| Oggi h: 05:53 | Sereno | 9 | 4 | 70 | 1013 | 10 | O/NO 7.4 | |
| Oggi h: 04:53 | Sereno | 11 | 4 | 61 | 1013 | 10 | S/SO 11.1 | |
| Oggi h: 03:53 | Sereno | 11 | 4 | 61 | 1013 | 10 | SO 9.3 | |
| Oggi h: 02:53 | Sereno | 11 | 4 | 61 | 1014 | 10 | SO 9.3 | |
| Oggi h: 01:53 | Sereno | 12 | 4 | 57 | 1014 | 10 | O/SO 7.4 | |
| Oggi h: 00:53 | Sereno | 14 | 4 | 50 | 1014 | 10 | SE 9.3 | |
| Ieri h: 23:53 | Sereno | 14 | 5 | 54 | 1014 | 10 | E/SE 13 | |
| Ieri h: 22:53 | Sereno | 17 | 4 | 41 | 1014 | 10 | E/SE 16.7 | |
| Ieri h: 21:53 | Sereno | 17 | 4 | 41 | 1014 | 10 | E 14.8 | |
| Ieri h: 20:53 | Sereno | 18 | 4 | 39 | 1014 | 10 | E 18.5 | |
| Ieri h: 19:53 | Sereno | 21 | 3 | 30 | 1014 | 10 | E 14.8 | |
| Ieri h: 18:53 | Sereno | 24 | 3 | 25 | 1014 | 10 | E 9.3 | |
| Ieri h: 17:53 | Sereno | 25 | 1 | 20 | 1014 | 10 | S/SO 9.3 | |
| Ieri h: 16:53 | Sereno | 25 | 1 | 20 | 1015 | 10 | S 14.8 | |
| Ieri h: 15:53 | Sereno | 24 | 1 | 22 | 1015 | 10 | S/SE 9.3 | |
| Ieri h: 14:53 | Sereno | 23 | 2 | 25 | 1016 | 10 | N 0 | |
| Ieri h: 13:53 | Sereno | 22 | 2 | 26 | 1016 | 10 | N 9.3 | |
| Ieri h: 12:53 | Sereno | 21 | 2 | 28 | 1017 | 10 | O 11.1 | |
| Ieri h: 11:53 | Sereno | 20 | 2 | 30 | 1018 | 10 | N 5.5 | |



